sensor_id;sensor_type;location;lat;lon;timestamp;pressure;altitude;pressure_sealevel;temperature
71205;BMP180;58935;54.498;18.544;2023-04-08T00:00:33;101151.80;;;6.40
71205;BMP180;58935;54.498;18.544;2023-04-08T00:03:00;101153.60;;;6.40
71205;BMP180;58935;54.498;18.544;2023-04-08T00:05:25;101157.80;;;6.34
71205;BMP180;58935;54.498;18.544;2023-04-08T00:07:51;101154.40;;;6.30
71205;BMP180;58935;54.498;18.544;2023-04-08T00:10:16;101152.00;;;6.32
71205;BMP180;58935;54.498;18.544;2023-04-08T00:12:42;101158.20;;;6.38
71205;BMP180;58935;54.498;18.544;2023-04-08T00:15:08;101156.60;;;6.38
71205;BMP180;58935;54.498;18.544;2023-04-08T00:17:33;101157.80;;;6.40
71205;BMP180;58935;54.498;18.544;2023-04-08T00:19:59;101161.80;;;6.40
71205;BMP180;58935;54.498;18.544;2023-04-08T00:22:24;101164.00;;;6.40
71205;BMP180;58935;54.498;18.544;2023-04-08T00:24:52;101162.20;;;6.40
71205;BMP180;58935;54.498;18.544;2023-04-08T00:27:18;101161.00;;;6.40
71205;BMP180;58935;54.498;18.544;2023-04-08T00:29:43;101161.40;;;6.46
71205;BMP180;58935;54.498;18.544;2023-04-08T00:32:08;101156.80;;;6.52
71205;BMP180;58935;54.498;18.544;2023-04-08T00:34:34;101152.40;;;6.60
71205;BMP180;58935;54.498;18.544;2023-04-08T00:36:59;101151.20;;;6.70
71205;BMP180;58935;54.498;18.544;2023-04-08T00:39:25;101158.80;;;6.80
71205;BMP180;58935;54.498;18.544;2023-04-08T00:41:50;101156.00;;;6.80
71205;BMP180;58935;54.498;18.544;2023-04-08T00:44:16;101157.40;;;6.90
71205;BMP180;58935;54.498;18.544;2023-04-08T00:46:44;101157.80;;;6.90
71205;BMP180;58935;54.498;18.544;2023-04-08T00:49:10;101160.20;;;7.00
71205;BMP180;58935;54.498;18.544;2023-04-08T00:51:37;101160.40;;;7.10
71205;BMP180;58935;54.498;18.544;2023-04-08T00:54:03;101159.40;;;7.14
71205;BMP180;58935;54.498;18.544;2023-04-08T00:56:30;101155.80;;;7.20
71205;BMP180;58935;54.498;18.544;2023-04-08T00:59:00;101158.80;;;7.20
71205;BMP180;58935;54.498;18.544;2023-04-08T01:01:42;101160.40;;;7.30
71205;BMP180;58935;54.498;18.544;2023-04-08T01:04:50;101162.00;;;7.30
71205;BMP180;58935;54.498;18.544;2023-04-08T01:09:44;101170.40;;;7.20
71205;BMP180;58935;54.498;18.544;2023-04-08T01:12:11;101176.20;;;7.20
71205;BMP180;58935;54.498;18.544;2023-04-08T01:14:43;101184.00;;;7.10
71205;BMP180;58935;54.498;18.544;2023-04-08T01:17:11;101174.00;;;7.04
71205;BMP180;58935;54.498;18.544;2023-04-08T01:19:38;101180.20;;;7.02
71205;BMP180;58935;54.498;18.544;2023-04-08T01:25:00;101197.00;;;6.90
71205;BMP180;58935;54.498;18.544;2023-04-08T01:27:32;101195.80;;;6.90
71205;BMP180;58935;54.498;18.544;2023-04-08T01:30:00;101191.20;;;6.92
71205;BMP180;58935;54.498;18.544;2023-04-08T01:32:28;101200.80;;;7.00
71205;BMP180;58935;54.498;18.544;2023-04-08T01:34:55;101204.80;;;7.10
71205;BMP180;58935;54.498;18.544;2023-04-08T01:37:23;101206.00;;;7.10
71205;BMP180;58935;54.498;18.544;2023-04-08T01:39:50;101214.80;;;7.20
71205;BMP180;58935;54.498;18.544;2023-04-08T01:42:18;101216.20;;;7.20
71205;BMP180;58935;54.498;18.544;2023-04-08T01:44:45;101215.40;;;7.20
71205;BMP180;58935;54.498;18.544;2023-04-08T01:47:12;101212.20;;;7.10
71205;BMP180;58935;54.498;18.544;2023-04-08T01:49:38;101212.00;;;7.10
71205;BMP180;58935;54.498;18.544;2023-04-08T01:52:08;101211.00;;;7.20
71205;BMP180;58935;54.498;18.544;2023-04-08T01:54:34;101208.00;;;7.22
71205;BMP180;58935;54.498;18.544;2023-04-08T01:57:04;101213.40;;;7.30
71205;BMP180;58935;54.498;18.544;2023-04-08T01:59:34;101209.60;;;7.30
71205;BMP180;58935;54.498;18.544;2023-04-08T02:02:02;101214.60;;;7.36
71205;BMP180;58935;54.498;18.544;2023-04-08T02:04:29;101214.20;;;7.30
71205;BMP180;58935;54.498;18.544;2023-04-08T02:06:55;101213.80;;;7.30
71205;BMP180;58935;54.498;18.544;2023-04-08T02:09:24;101216.60;;;7.30
71205;BMP180;58935;54.498;18.544;2023-04-08T02:11:49;101219.00;;;7.30
71205;BMP180;58935;54.498;18.544;2023-04-08T02:14:15;101220.60;;;7.30
71205;BMP180;58935;54.498;18.544;2023-04-08T02:19:29;101222.20;;;7.40
71205;BMP180;58935;54.498;18.544;2023-04-08T02:22:01;101225.80;;;7.40
71205;BMP180;58935;54.498;18.544;2023-04-08T02:24:29;101224.40;;;7.50
71205;BMP180;58935;54.498;18.544;2023-04-08T02:26:57;101224.40;;;7.50
71205;BMP180;58935;54.498;18.544;2023-04-08T02:29:23;101225.00;;;7.50
71205;BMP180;58935;54.498;18.544;2023-04-08T02:31:50;101224.40;;;7.40
71205;BMP180;58935;54.498;18.544;2023-04-08T02:34:16;101227.60;;;7.40
71205;BMP180;58935;54.498;18.544;2023-04-08T02:36:42;101228.20;;;7.40
71205;BMP180;58935;54.498;18.544;2023-04-08T02:39:12;101227.40;;;7.40
71205;BMP180;58935;54.498;18.544;2023-04-08T02:41:40;101229.00;;;7.30
71205;BMP180;58935;54.498;18.544;2023-04-08T02:44:05;101229.00;;;7.30
71205;BMP180;58935;54.498;18.544;2023-04-08T02:46:31;101227.80;;;7.30
71205;BMP180;58935;54.498;18.544;2023-04-08T02:48:56;101236.60;;;7.30
71205;BMP180;58935;54.498;18.544;2023-04-08T02:51:22;101244.00;;;7.30
71205;BMP180;58935;54.498;18.544;2023-04-08T02:53:47;101248.60;;;7.30
71205;BMP180;58935;54.498;18.544;2023-04-08T02:56:12;101249.40;;;7.32
71205;BMP180;58935;54.498;18.544;2023-04-08T02:58:38;101249.00;;;7.40
71205;BMP180;58935;54.498;18.544;2023-04-08T03:01:03;101246.40;;;7.40
71205;BMP180;58935;54.498;18.544;2023-04-08T03:03:29;101246.20;;;7.40
71205;BMP180;58935;54.498;18.544;2023-04-08T03:05:56;101245.80;;;7.40
71205;BMP180;58935;54.498;18.544;2023-04-08T03:08:24;101248.60;;;7.40
71205;BMP180;58935;54.498;18.544;2023-04-08T03:10:50;101243.00;;;7.40
71205;BMP180;58935;54.498;18.544;2023-04-08T03:13:16;101240.20;;;7.40
71205;BMP180;58935;54.498;18.544;2023-04-08T03:15:41;101243.60;;;7.40
71205;BMP180;58935;54.498;18.544;2023-04-08T03:18:07;101245.40;;;7.40
71205;BMP180;58935;54.498;18.544;2023-04-08T03:20:33;101245.00;;;7.40
71205;BMP180;58935;54.498;18.544;2023-04-08T03:23:01;101247.20;;;7.40
71205;BMP180;58935;54.498;18.544;2023-04-08T03:25:26;101240.60;;;7.40
71205;BMP180;58935;54.498;18.544;2023-04-08T03:27:53;101248.40;;;7.40
71205;BMP180;58935;54.498;18.544;2023-04-08T03:30:19;101249.20;;;7.40
71205;BMP180;58935;54.498;18.544;2023-04-08T03:32:45;101247.40;;;7.40
71205;BMP180;58935;54.498;18.544;2023-04-08T03:35:10;101246.20;;;7.40
71205;BMP180;58935;54.498;18.544;2023-04-08T03:37:35;101246.20;;;7.40
71205;BMP180;58935;54.498;18.544;2023-04-08T03:40:01;101253.60;;;7.48
71205;BMP180;58935;54.498;18.544;2023-04-08T03:42:27;101259.00;;;7.50
71205;BMP180;58935;54.498;18.544;2023-04-08T03:44:52;101262.80;;;7.50
71205;BMP180;58935;54.498;18.544;2023-04-08T03:47:22;101267.80;;;7.50
71205;BMP180;58935;54.498;18.544;2023-04-08T03:49:47;101273.80;;;7.60
71205;BMP180;58935;54.498;18.544;2023-04-08T03:52:12;101273.60;;;7.60
71205;BMP180;58935;54.498;18.544;2023-04-08T03:54:40;101276.20;;;7.56
71205;BMP180;58935;54.498;18.544;2023-04-08T03:57:05;101279.00;;;7.50
71205;BMP180;58935;54.498;18.544;2023-04-08T03:59:31;101283.20;;;7.52
71205;BMP180;58935;54.498;18.544;2023-04-08T04:01:58;101288.00;;;7.50
71205;BMP180;58935;54.498;18.544;2023-04-08T04:04:23;101280.60;;;7.50
71205;BMP180;58935;54.498;18.544;2023-04-08T04:06:48;101288.00;;;7.50
71205;BMP180;58935;54.498;18.544;2023-04-08T04:09:14;101290.40;;;7.50
71205;BMP180;58935;54.498;18.544;2023-04-08T04:11:41;101290.20;;;7.52
71205;BMP180;58935;54.498;18.544;2023-04-08T04:14:06;101288.40;;;7.58
71205;BMP180;58935;54.498;18.544;2023-04-08T04:16:31;101280.80;;;7.60
71205;BMP180;58935;54.498;18.544;2023-04-08T04:18:59;101286.40;;;7.60
71205;BMP180;58935;54.498;18.544;2023-04-08T04:21:25;101289.40;;;7.60
71205;BMP180;58935;54.498;18.544;2023-04-08T04:23:51;101295.40;;;7.60
71205;BMP180;58935;54.498;18.544;2023-04-08T04:26:16;101298.00;;;7.50
71205;BMP180;58935;54.498;18.544;2023-04-08T04:28:41;101292.80;;;7.50
71205;BMP180;58935;54.498;18.544;2023-04-08T04:31:07;101298.20;;;7.48
71205;BMP180;58935;54.498;18.544;2023-04-08T04:33:32;101300.40;;;7.50
71205;BMP180;58935;54.498;18.544;2023-04-08T04:35:57;101301.20;;;7.50
71205;BMP180;58935;54.498;18.544;2023-04-08T04:38:23;101300.20;;;7.60
71205;BMP180;58935;54.498;18.544;2023-04-08T04:40:51;101294.00;;;7.60
71205;BMP180;58935;54.498;18.544;2023-04-08T04:43:16;101298.40;;;7.70
71205;BMP180;58935;54.498;18.544;2023-04-08T04:45:42;101298.00;;;7.70
71205;BMP180;58935;54.498;18.544;2023-04-08T04:48:09;101303.60;;;7.70
71205;BMP180;58935;54.498;18.544;2023-04-08T04:50:34;101306.80;;;7.70
71205;BMP180;58935;54.498;18.544;2023-04-08T04:52:59;101309.60;;;7.70
71205;BMP180;58935;54.498;18.544;2023-04-08T04:55:25;101309.40;;;7.70
71205;BMP180;58935;54.498;18.544;2023-04-08T04:57:53;101307.20;;;7.70
71205;BMP180;58935;54.498;18.544;2023-04-08T05:00:18;101311.80;;;7.80
71205;BMP180;58935;54.498;18.544;2023-04-08T05:02:48;101313.60;;;7.80
71205;BMP180;58935;54.498;18.544;2023-04-08T05:05:13;101313.40;;;7.80
71205;BMP180;58935;54.498;18.544;2023-04-08T05:07:41;101313.60;;;7.90
71205;BMP180;58935;54.498;18.544;2023-04-08T05:10:07;101321.60;;;7.90
71205;BMP180;58935;54.498;18.544;2023-04-08T05:12:33;101320.40;;;8.00
71205;BMP180;58935;54.498;18.544;2023-04-08T05:14:58;101325.00;;;8.00
71205;BMP180;58935;54.498;18.544;2023-04-08T05:17:23;101324.20;;;8.10
71205;BMP180;58935;54.498;18.544;2023-04-08T05:19:49;101321.80;;;8.12
71205;BMP180;58935;54.498;18.544;2023-04-08T05:22:15;101323.20;;;8.20
71205;BMP180;58935;54.498;18.544;2023-04-08T05:24:41;101322.80;;;8.20
71205;BMP180;58935;54.498;18.544;2023-04-08T05:27:06;101324.60;;;8.30
71205;BMP180;58935;54.498;18.544;2023-04-08T05:29:31;101324.00;;;8.30
71205;BMP180;58935;54.498;18.544;2023-04-08T05:31:57;101324.20;;;8.40
71205;BMP180;58935;54.498;18.544;2023-04-08T05:34:23;101328.20;;;8.40
71205;BMP180;58935;54.498;18.544;2023-04-08T05:36:49;101330.20;;;8.40
71205;BMP180;58935;54.498;18.544;2023-04-08T05:39:17;101335.00;;;8.40
71205;BMP180;58935;54.498;18.544;2023-04-08T05:41:43;101333.20;;;8.40
71205;BMP180;58935;54.498;18.544;2023-04-08T05:44:09;101334.00;;;8.40
71205;BMP180;58935;54.498;18.544;2023-04-08T05:46:36;101338.60;;;8.40
71205;BMP180;58935;54.498;18.544;2023-04-08T05:49:02;101342.80;;;8.50
71205;BMP180;58935;54.498;18.544;2023-04-08T05:51:29;101340.60;;;8.50
71205;BMP180;58935;54.498;18.544;2023-04-08T05:53:55;101343.00;;;8.50
71205;BMP180;58935;54.498;18.544;2023-04-08T05:56:21;101347.00;;;8.60
71205;BMP180;58935;54.498;18.544;2023-04-08T05:58:46;101350.00;;;8.60
71205;BMP180;58935;54.498;18.544;2023-04-08T06:01:12;101350.20;;;8.70
71205;BMP180;58935;54.498;18.544;2023-04-08T06:03:39;101353.00;;;8.70
71205;BMP180;58935;54.498;18.544;2023-04-08T06:06:08;101352.40;;;8.80
71205;BMP180;58935;54.498;18.544;2023-04-08T06:08:36;101356.00;;;8.80
71205;BMP180;58935;54.498;18.544;2023-04-08T06:11:04;101360.00;;;8.90
71205;BMP180;58935;54.498;18.544;2023-04-08T06:13:30;101361.60;;;8.94
71205;BMP180;58935;54.498;18.544;2023-04-08T06:15:56;101361.80;;;9.00
71205;BMP180;58935;54.498;18.544;2023-04-08T06:18:22;101364.60;;;9.00
71205;BMP180;58935;54.498;18.544;2023-04-08T06:20:47;101372.40;;;9.10
71205;BMP180;58935;54.498;18.544;2023-04-08T06:23:12;101374.80;;;9.20
71205;BMP180;58935;54.498;18.544;2023-04-08T06:25:38;101374.20;;;9.30
71205;BMP180;58935;54.498;18.544;2023-04-08T06:28:03;101384.60;;;9.40
71205;BMP180;58935;54.498;18.544;2023-04-08T06:30:29;101390.80;;;9.44
71205;BMP180;58935;54.498;18.544;2023-04-08T06:32:55;101394.20;;;9.56
71205;BMP180;58935;54.498;18.544;2023-04-08T06:35:22;101397.80;;;9.68
71205;BMP180;58935;54.498;18.544;2023-04-08T06:37:48;101393.60;;;9.70
71205;BMP180;58935;54.498;18.544;2023-04-08T06:40:13;101399.60;;;9.80
71205;BMP180;58935;54.498;18.544;2023-04-08T06:42:39;101405.40;;;9.88
71205;BMP180;58935;54.498;18.544;2023-04-08T06:45:07;101402.80;;;9.88
71205;BMP180;58935;54.498;18.544;2023-04-08T06:47:33;101410.80;;;9.90
71205;BMP180;58935;54.498;18.544;2023-04-08T06:49:58;101407.40;;;9.90
71205;BMP180;58935;54.498;18.544;2023-04-08T06:52:24;101413.80;;;9.90
71205;BMP180;58935;54.498;18.544;2023-04-08T06:54:49;101410.40;;;9.82
71205;BMP180;58935;54.498;18.544;2023-04-08T06:57:15;101412.40;;;9.90
71205;BMP180;58935;54.498;18.544;2023-04-08T06:59:40;101413.00;;;9.90
71205;BMP180;58935;54.498;18.544;2023-04-08T07:02:05;101411.60;;;9.90
71205;BMP180;58935;54.498;18.544;2023-04-08T07:04:31;101416.80;;;9.90
71205;BMP180;58935;54.498;18.544;2023-04-08T07:06:57;101429.20;;;10.00
71205;BMP180;58935;54.498;18.544;2023-04-08T07:09:22;101430.80;;;10.00
71205;BMP180;58935;54.498;18.544;2023-04-08T07:11:48;101429.40;;;10.10
71205;BMP180;58935;54.498;18.544;2023-04-08T07:14:13;101427.40;;;10.10
71205;BMP180;58935;54.498;18.544;2023-04-08T07:16:38;101432.40;;;10.20
71205;BMP180;58935;54.498;18.544;2023-04-08T07:19:04;101435.60;;;10.20
71205;BMP180;58935;54.498;18.544;2023-04-08T07:21:29;101430.20;;;10.20
71205;BMP180;58935;54.498;18.544;2023-04-08T07:23:55;101429.40;;;10.30
71205;BMP180;58935;54.498;18.544;2023-04-08T07:26:21;101432.60;;;10.30
71205;BMP180;58935;54.498;18.544;2023-04-08T07:28:46;101438.20;;;10.40
71205;BMP180;58935;54.498;18.544;2023-04-08T07:31:13;101434.00;;;10.50
71205;BMP180;58935;54.498;18.544;2023-04-08T07:33:40;101435.20;;;10.50
71205;BMP180;58935;54.498;18.544;2023-04-08T07:36:08;101436.00;;;10.60
71205;BMP180;58935;54.498;18.544;2023-04-08T07:38:37;101438.20;;;10.70
71205;BMP180;58935;54.498;18.544;2023-04-08T07:41:03;101437.00;;;10.74
71205;BMP180;58935;54.498;18.544;2023-04-08T07:43:30;101443.40;;;10.82
71205;BMP180;58935;54.498;18.544;2023-04-08T07:46:00;101442.60;;;10.90
71205;BMP180;58935;54.498;18.544;2023-04-08T07:48:28;101438.60;;;11.00
71205;BMP180;58935;54.498;18.544;2023-04-08T07:50:54;101449.80;;;11.10
71205;BMP180;58935;54.498;18.544;2023-04-08T07:53:20;101450.00;;;11.20
71205;BMP180;58935;54.498;18.544;2023-04-08T07:55:45;101453.80;;;11.30
71205;BMP180;58935;54.498;18.544;2023-04-08T07:58:10;101453.80;;;11.30
71205;BMP180;58935;54.498;18.544;2023-04-08T08:00:36;101454.80;;;11.34
71205;BMP180;58935;54.498;18.544;2023-04-08T08:03:01;101454.40;;;11.34
71205;BMP180;58935;54.498;18.544;2023-04-08T08:05:27;101457.40;;;11.30
71205;BMP180;58935;54.498;18.544;2023-04-08T08:07:52;101458.20;;;11.28
71205;BMP180;58935;54.498;18.544;2023-04-08T08:10:19;101460.40;;;11.30
71205;BMP180;58935;54.498;18.544;2023-04-08T08:12:47;101460.80;;;11.30
71205;BMP180;58935;54.498;18.544;2023-04-08T08:15:12;101467.00;;;11.10
71205;BMP180;58935;54.498;18.544;2023-04-08T08:17:38;101469.00;;;11.08
71205;BMP180;58935;54.498;18.544;2023-04-08T08:20:07;101472.60;;;11.00
71205;BMP180;58935;54.498;18.544;2023-04-08T08:22:34;101472.00;;;10.90
71205;BMP180;58935;54.498;18.544;2023-04-08T08:25:03;101471.40;;;10.80
71205;BMP180;58935;54.498;18.544;2023-04-08T08:27:28;101476.00;;;10.70
71205;BMP180;58935;54.498;18.544;2023-04-08T08:29:54;101482.60;;;10.70
71205;BMP180;58935;54.498;18.544;2023-04-08T08:32:19;101481.80;;;10.70
71205;BMP180;58935;54.498;18.544;2023-04-08T08:34:47;101481.80;;;10.70
71205;BMP180;58935;54.498;18.544;2023-04-08T08:37:12;101482.00;;;10.70
71205;BMP180;58935;54.498;18.544;2023-04-08T08:39:37;101481.40;;;10.80
71205;BMP180;58935;54.498;18.544;2023-04-08T08:42:03;101486.80;;;11.00
71205;BMP180;58935;54.498;18.544;2023-04-08T08:44:30;101492.00;;;11.10
71205;BMP180;58935;54.498;18.544;2023-04-08T08:46:56;101488.00;;;11.20
71205;BMP180;58935;54.498;18.544;2023-04-08T08:49:21;101488.40;;;11.20
71205;BMP180;58935;54.498;18.544;2023-04-08T08:51:48;101496.40;;;11.28
71205;BMP180;58935;54.498;18.544;2023-04-08T08:54:15;101491.00;;;11.30
71205;BMP180;58935;54.498;18.544;2023-04-08T08:56:41;101496.20;;;11.30
71205;BMP180;58935;54.498;18.544;2023-04-08T08:59:08;101496.60;;;11.38
71205;BMP180;58935;54.498;18.544;2023-04-08T09:01:36;101504.60;;;11.40
71205;BMP180;58935;54.498;18.544;2023-04-08T09:04:06;101499.60;;;11.50
71205;BMP180;58935;54.498;18.544;2023-04-08T09:06:31;101495.60;;;11.50
71205;BMP180;58935;54.498;18.544;2023-04-08T09:08:57;101499.40;;;11.60
71205;BMP180;58935;54.498;18.544;2023-04-08T09:11:22;101506.00;;;11.70
71205;BMP180;58935;54.498;18.544;2023-04-08T09:13:47;101509.60;;;11.70
71205;BMP180;58935;54.498;18.544;2023-04-08T09:16:15;101506.60;;;11.80
71205;BMP180;58935;54.498;18.544;2023-04-08T09:18:42;101509.80;;;11.80
71205;BMP180;58935;54.498;18.544;2023-04-08T09:21:12;101510.40;;;11.84
71205;BMP180;58935;54.498;18.544;2023-04-08T09:23:45;101505.80;;;11.88
71205;BMP180;58935;54.498;18.544;2023-04-08T09:26:14;101508.00;;;11.90
71205;BMP180;58935;54.498;18.544;2023-04-08T09:28:41;101511.60;;;11.90
71205;BMP180;58935;54.498;18.544;2023-04-08T09:31:27;101511.40;;;11.90
71205;BMP180;58935;54.498;18.544;2023-04-08T09:33:58;101512.60;;;11.90
71205;BMP180;58935;54.498;18.544;2023-04-08T09:36:24;101508.00;;;11.90
71205;BMP180;58935;54.498;18.544;2023-04-08T09:38:52;101513.40;;;11.90
71205;BMP180;58935;54.498;18.544;2023-04-08T09:41:18;101515.00;;;11.90
71205;BMP180;58935;54.498;18.544;2023-04-08T09:43:47;101516.60;;;12.00
71205;BMP180;58935;54.498;18.544;2023-04-08T09:46:15;101512.60;;;12.00
71205;BMP180;58935;54.498;18.544;2023-04-08T09:48:48;101513.20;;;12.08
71205;BMP180;58935;54.498;18.544;2023-04-08T09:51:16;101512.80;;;12.10
71205;BMP180;58935;54.498;18.544;2023-04-08T09:53:48;101514.80;;;12.20
71205;BMP180;58935;54.498;18.544;2023-04-08T09:56:16;101512.00;;;12.20
71205;BMP180;58935;54.498;18.544;2023-04-08T09:58:51;101513.00;;;12.40
71205;BMP180;58935;54.498;18.544;2023-04-08T10:01:21;101515.00;;;12.60
71205;BMP180;58935;54.498;18.544;2023-04-08T10:03:53;101507.60;;;12.70
71205;BMP180;58935;54.498;18.544;2023-04-08T10:06:21;101511.60;;;12.60
71205;BMP180;58935;54.498;18.544;2023-04-08T10:08:52;101512.20;;;12.50
71205;BMP180;58935;54.498;18.544;2023-04-08T10:11:18;101513.00;;;12.46
71205;BMP180;58935;54.498;18.544;2023-04-08T10:13:44;101511.00;;;12.40
71205;BMP180;58935;54.498;18.544;2023-04-08T10:18:42;101520.00;;;12.20
71205;BMP180;58935;54.498;18.544;2023-04-08T10:26:29;101517.00;;;12.10
71205;BMP180;58935;54.498;18.544;2023-04-08T10:29:29;101517.60;;;12.00
71205;BMP180;58935;54.498;18.544;2023-04-08T10:31:54;101520.20;;;11.90
71205;BMP180;58935;54.498;18.544;2023-04-08T10:34:23;101516.20;;;11.70
71205;BMP180;58935;54.498;18.544;2023-04-08T10:36:51;101514.80;;;11.70
71205;BMP180;58935;54.498;18.544;2023-04-08T10:39:17;101514.60;;;11.62
71205;BMP180;58935;54.498;18.544;2023-04-08T10:41:44;101510.40;;;11.60
71205;BMP180;58935;54.498;18.544;2023-04-08T10:44:15;101511.40;;;11.60
71205;BMP180;58935;54.498;18.544;2023-04-08T10:46:43;101515.40;;;11.70
71205;BMP180;58935;54.498;18.544;2023-04-08T10:49:09;101510.00;;;11.80
71205;BMP180;58935;54.498;18.544;2023-04-08T10:51:38;101506.40;;;11.90
71205;BMP180;58935;54.498;18.544;2023-04-08T10:54:07;101505.20;;;12.00
71205;BMP180;58935;54.498;18.544;2023-04-08T10:56:34;101500.40;;;12.00
71205;BMP180;58935;54.498;18.544;2023-04-08T10:59:00;101495.60;;;12.08
71205;BMP180;58935;54.498;18.544;2023-04-08T11:01:25;101497.00;;;12.20
71205;BMP180;58935;54.498;18.544;2023-04-08T11:03:52;101497.00;;;12.30
71205;BMP180;58935;54.498;18.544;2023-04-08T11:06:17;101496.40;;;12.40
71205;BMP180;58935;54.498;18.544;2023-04-08T11:08:44;101496.00;;;12.40
71205;BMP180;58935;54.498;18.544;2023-04-08T11:11:10;101495.40;;;12.50
71205;BMP180;58935;54.498;18.544;2023-04-08T11:13:38;101491.60;;;12.60
71205;BMP180;58935;54.498;18.544;2023-04-08T11:16:07;101488.00;;;12.70
71205;BMP180;58935;54.498;18.544;2023-04-08T11:18:34;101494.00;;;12.80
71205;BMP180;58935;54.498;18.544;2023-04-08T11:21:00;101494.40;;;12.80
71205;BMP180;58935;54.498;18.544;2023-04-08T11:23:26;101490.80;;;12.74
71205;BMP180;58935;54.498;18.544;2023-04-08T11:25:54;101491.80;;;12.70
71205;BMP180;58935;54.498;18.544;2023-04-08T11:28:21;101490.60;;;12.60
71205;BMP180;58935;54.498;18.544;2023-04-08T11:30:46;101493.20;;;12.70
71205;BMP180;58935;54.498;18.544;2023-04-08T11:33:13;101494.40;;;12.60
71205;BMP180;58935;54.498;18.544;2023-04-08T11:35:40;101495.60;;;12.50
71205;BMP180;58935;54.498;18.544;2023-04-08T11:38:07;101491.00;;;12.40
71205;BMP180;58935;54.498;18.544;2023-04-08T11:40:33;101488.60;;;12.30
71205;BMP180;58935;54.498;18.544;2023-04-08T11:42:58;101491.60;;;12.24
71205;BMP180;58935;54.498;18.544;2023-04-08T11:45:24;101490.00;;;12.20
71205;BMP180;58935;54.498;18.544;2023-04-08T11:47:50;101491.60;;;12.20
71205;BMP180;58935;54.498;18.544;2023-04-08T11:50:24;101492.20;;;12.20
71205;BMP180;58935;54.498;18.544;2023-04-08T11:52:52;101493.60;;;12.30
71205;BMP180;58935;54.498;18.544;2023-04-08T11:55:22;101494.80;;;12.40
71205;BMP180;58935;54.498;18.544;2023-04-08T11:57:47;101498.00;;;12.50
71205;BMP180;58935;54.498;18.544;2023-04-08T12:00:13;101498.60;;;12.40
71205;BMP180;58935;54.498;18.544;2023-04-08T12:02:39;101506.80;;;12.30
71205;BMP180;58935;54.498;18.544;2023-04-08T12:05:07;101507.40;;;12.20
71205;BMP180;58935;54.498;18.544;2023-04-08T12:07:33;101507.20;;;12.10
71205;BMP180;58935;54.498;18.544;2023-04-08T12:09:58;101506.40;;;12.00
71205;BMP180;58935;54.498;18.544;2023-04-08T12:12:23;101504.40;;;12.00
71205;BMP180;58935;54.498;18.544;2023-04-08T12:14:49;101514.20;;;12.00
71205;BMP180;58935;54.498;18.544;2023-04-08T12:17:14;101510.20;;;12.10
71205;BMP180;58935;54.498;18.544;2023-04-08T12:19:40;101508.60;;;12.00
71205;BMP180;58935;54.498;18.544;2023-04-08T12:22:07;101507.40;;;11.90
71205;BMP180;58935;54.498;18.544;2023-04-08T12:24:33;101507.60;;;11.80
71205;BMP180;58935;54.498;18.544;2023-04-08T12:26:58;101511.20;;;11.70
71205;BMP180;58935;54.498;18.544;2023-04-08T12:29:24;101504.80;;;11.60
71205;BMP180;58935;54.498;18.544;2023-04-08T12:31:54;101503.40;;;11.50
71205;BMP180;58935;54.498;18.544;2023-04-08T12:34:22;101501.80;;;11.50
71205;BMP180;58935;54.498;18.544;2023-04-08T12:36:48;101499.00;;;11.50
71205;BMP180;58935;54.498;18.544;2023-04-08T12:39:16;101499.20;;;11.40
71205;BMP180;58935;54.498;18.544;2023-04-08T12:41:43;101499.20;;;11.20
71205;BMP180;58935;54.498;18.544;2023-04-08T12:44:09;101501.00;;;11.00
71205;BMP180;58935;54.498;18.544;2023-04-08T12:46:35;101502.20;;;10.90
71205;BMP180;58935;54.498;18.544;2023-04-08T12:49:02;101499.60;;;10.90
71205;BMP180;58935;54.498;18.544;2023-04-08T12:51:30;101497.40;;;10.90
71205;BMP180;58935;54.498;18.544;2023-04-08T12:53:56;101502.20;;;10.90
71205;BMP180;58935;54.498;18.544;2023-04-08T12:56:21;101498.20;;;10.90
71205;BMP180;58935;54.498;18.544;2023-04-08T12:58:47;101496.40;;;10.80
71205;BMP180;58935;54.498;18.544;2023-04-08T13:01:13;101496.80;;;10.70
71205;BMP180;58935;54.498;18.544;2023-04-08T13:03:38;101497.00;;;10.70
71205;BMP180;58935;54.498;18.544;2023-04-08T13:06:04;101491.80;;;10.66
71205;BMP180;58935;54.498;18.544;2023-04-08T13:08:31;101490.00;;;10.70
71205;BMP180;58935;54.498;18.544;2023-04-08T13:10:57;101488.80;;;10.70
71205;BMP180;58935;54.498;18.544;2023-04-08T13:13:22;101491.60;;;10.80
71205;BMP180;58935;54.498;18.544;2023-04-08T13:15:50;101497.80;;;10.82
71205;BMP180;58935;54.498;18.544;2023-04-08T13:18:16;101497.20;;;10.88
71205;BMP180;58935;54.498;18.544;2023-04-08T13:20:41;101497.60;;;10.90
71205;BMP180;58935;54.498;18.544;2023-04-08T13:23:07;101498.40;;;11.02
71205;BMP180;58935;54.498;18.544;2023-04-08T13:25:35;101495.00;;;11.12
71205;BMP180;58935;54.498;18.544;2023-04-08T13:28:00;101497.20;;;11.20
71205;BMP180;58935;54.498;18.544;2023-04-08T13:30:28;101496.00;;;11.20
71205;BMP180;58935;54.498;18.544;2023-04-08T13:32:53;101499.00;;;11.20
71205;BMP180;58935;54.498;18.544;2023-04-08T13:35:19;101501.60;;;11.20
71205;BMP180;58935;54.498;18.544;2023-04-08T13:37:46;101502.60;;;11.12
71205;BMP180;58935;54.498;18.544;2023-04-08T13:40:11;101498.00;;;11.10
71205;BMP180;58935;54.498;18.544;2023-04-08T13:42:37;101495.20;;;11.10
71205;BMP180;58935;54.498;18.544;2023-04-08T13:45:06;101505.20;;;11.10
71205;BMP180;58935;54.498;18.544;2023-04-08T13:47:32;101502.80;;;11.10
71205;BMP180;58935;54.498;18.544;2023-04-08T13:49:57;101501.00;;;11.10
71205;BMP180;58935;54.498;18.544;2023-04-08T13:52:22;101501.20;;;11.00
71205;BMP180;58935;54.498;18.544;2023-04-08T13:54:48;101500.00;;;11.00
71205;BMP180;58935;54.498;18.544;2023-04-08T13:57:13;101505.80;;;11.00
71205;BMP180;58935;54.498;18.544;2023-04-08T13:59:39;101505.80;;;11.00
71205;BMP180;58935;54.498;18.544;2023-04-08T14:02:06;101504.20;;;11.00
71205;BMP180;58935;54.498;18.544;2023-04-08T14:04:32;101509.20;;;11.00